Republic, Michigan
Current Conditions -  °F | °C
As of 12:47 PM on Tuesday 21 Oct 2014 (Local Time) from KSAW Reporting Station
Scattered Clouds Scattered Clouds  
Wind Chill: 34°   Ceiling: Unl
Heat Index: 41°   Visibility: 10mi
Dew Point: 32°   Wind: 12mph
Humidity: 70%   Direction: 360°N
Pressure: 30.25"   Gusts: NA
Location:  46.41°N, 87.98°W
Report Text: KSAW 211647Z 36010KT 10SM SCT022 05/00 A3025
Loading
Personal Weather Stations






























Interactive Weather Map
Tropical Storm Tracking
New forecast layout! Learn more

10-Day Weather Forecast

Advertisements
Track Severe Weather on mobile